createdAt,value
2023-10-14T00:01:36.063Z,1.42
2023-10-14T00:04:05.593Z,1.20
2023-10-14T00:06:35.826Z,1.17
2023-10-14T00:09:12.499Z,1.50
2023-10-14T00:11:44.284Z,1.02
2023-10-14T00:14:16.641Z,1.20
2023-10-14T00:16:50.719Z,1.48
2023-10-14T00:19:20.238Z,1.40
2023-10-14T00:21:50.246Z,1.33
2023-10-14T00:24:27.318Z,1.52
2023-10-14T00:26:55.664Z,1.25
2023-10-14T00:29:30.811Z,1.70
2023-10-14T00:32:00.388Z,1.40
2023-10-14T00:34:31.049Z,1.52
2023-10-14T00:36:59.268Z,1.33
2023-10-14T00:39:28.562Z,1.45
2023-10-14T00:41:57.690Z,1.33
2023-10-14T00:44:27.496Z,1.30
2023-10-14T00:46:57.203Z,1.50
2023-10-14T00:49:32.253Z,2.03
2023-10-14T00:52:02.444Z,1.40
2023-10-14T00:54:41.861Z,1.65
2023-10-14T00:57:21.662Z,1.48
2023-10-14T00:59:52.732Z,1.73
2023-10-14T01:02:27.788Z,1.73
2023-10-14T01:04:56.682Z,1.45
2023-10-14T01:07:24.941Z,1.20
2023-10-14T01:09:54.257Z,1.40
2023-10-14T01:12:28.683Z,1.63
2023-10-14T01:17:30.645Z,1.55
2023-10-14T01:20:02.127Z,1.50
2023-10-14T01:22:31.707Z,1.70
2023-10-14T01:24:59.561Z,1.60
2023-10-14T01:27:35.553Z,1.90
2023-10-14T01:30:09.769Z,2.00
2023-10-14T01:32:50.347Z,1.88
2023-10-14T01:35:28.065Z,1.98
2023-10-14T01:37:58.814Z,2.00
2023-10-14T01:40:30.985Z,1.88
2023-10-14T01:43:06.995Z,2.17
2023-10-14T01:45:41.045Z,2.58
2023-10-14T01:48:15.827Z,2.03
2023-10-14T01:50:55.598Z,2.25
2023-10-14T01:53:26.067Z,2.50
2023-10-14T01:55:55.209Z,2.03
2023-10-14T01:58:30.787Z,2.10
2023-10-14T02:01:06.729Z,1.75
2023-10-14T02:03:36.876Z,2.10
2023-10-14T02:06:11.932Z,2.50
2023-10-14T02:08:41.552Z,1.80
2023-10-14T02:11:10.878Z,2.05
2023-10-14T02:13:38.795Z,2.00
2023-10-14T02:16:09.532Z,1.90
2023-10-14T02:18:39.563Z,2.50
2023-10-14T02:21:12.739Z,2.60
2023-10-14T02:23:49.548Z,2.60
2023-10-14T02:26:23.217Z,2.42
2023-10-14T02:28:54.305Z,2.15
2023-10-14T02:31:31.310Z,2.35
2023-10-14T02:34:04.750Z,2.63
2023-10-14T02:36:36.354Z,1.95
2023-10-14T02:39:13.587Z,2.25
2023-10-14T02:41:45.738Z,2.22
2023-10-14T02:47:03.030Z,2.00
2023-10-14T02:49:36.790Z,2.20
2023-10-14T02:52:09.911Z,2.37
2023-10-14T02:54:43.113Z,2.55
2023-10-14T02:57:25.244Z,2.58
2023-10-14T02:59:55.337Z,2.58
2023-10-14T03:02:28.566Z,2.45
2023-10-14T03:05:09.822Z,1.70
2023-10-14T03:07:48.363Z,2.13
2023-10-14T03:10:29.743Z,2.08
2023-10-14T03:12:59.411Z,2.47
2023-10-14T03:15:31.365Z,2.17
2023-10-14T03:18:02.226Z,2.17
2023-10-14T03:20:38.789Z,2.08
2023-10-14T03:23:20.587Z,2.20
2023-10-14T03:25:52.542Z,2.35
2023-10-14T03:28:22.267Z,2.47
2023-10-14T03:30:56.699Z,2.50
2023-10-14T03:33:29.488Z,2.40
2023-10-14T03:35:59.300Z,2.45
2023-10-14T03:38:41.307Z,2.50
2023-10-14T03:41:18.217Z,2.08
2023-10-14T03:43:50.729Z,2.67
2023-10-14T03:46:24.717Z,2.13
2023-10-14T03:51:26.593Z,2.40
2023-10-14T03:53:54.829Z,2.17
2023-10-14T03:56:27.349Z,2.40
2023-10-14T03:58:59.619Z,2.70
2023-10-14T04:01:34.652Z,2.22
2023-10-14T04:04:16.366Z,2.40
2023-10-14T04:06:52.658Z,2.45
2023-10-14T04:09:25.984Z,2.30
2023-10-14T04:12:01.599Z,2.57
2023-10-14T04:14:30.452Z,2.22
2023-10-14T04:17:11.807Z,2.15
2023-10-14T04:19:55.072Z,2.42
2023-10-14T04:22:32.788Z,2.47
2023-10-14T04:25:18.761Z,2.83
2023-10-14T04:28:19.184Z,2.45
2023-10-14T04:30:47.708Z,2.25
2023-10-14T04:33:35.605Z,2.25
2023-10-14T04:36:37.872Z,2.42
2023-10-14T04:39:23.533Z,2.25
2023-10-14T04:42:19.046Z,2.45
2023-10-14T04:44:55.461Z,2.33
2023-10-14T04:47:36.661Z,2.35
2023-10-14T04:50:11.672Z,2.25
2023-10-14T04:52:40.689Z,2.38
2023-10-14T04:55:21.917Z,1.80
2023-10-14T04:58:07.303Z,2.40
2023-10-14T05:00:43.443Z,2.42
2023-10-14T05:03:13.622Z,2.33
2023-10-14T05:05:44.761Z,2.25
2023-10-14T05:08:17.308Z,2.15
2023-10-14T05:10:46.587Z,2.30
2023-10-14T05:13:14.859Z,2.10
2023-10-14T05:15:54.201Z,2.33
2023-10-14T05:18:29.316Z,2.58
2023-10-14T05:21:05.626Z,2.15
2023-10-14T05:23:34.027Z,2.15
2023-10-14T05:26:08.004Z,2.50
2023-10-14T05:28:38.381Z,2.30
2023-10-14T05:31:09.779Z,2.33
2023-10-14T05:33:38.658Z,2.00
2023-10-14T05:36:07.300Z,2.10
2023-10-14T05:38:35.306Z,2.08
2023-10-14T05:41:07.968Z,2.05
2023-10-14T05:43:35.859Z,2.65
2023-10-14T05:46:13.735Z,2.20
2023-10-14T05:48:41.831Z,2.60
2023-10-14T05:51:09.693Z,2.20
2023-10-14T05:53:37.754Z,2.53
2023-10-14T05:56:11.108Z,2.35
2023-10-14T05:58:39.877Z,2.30
2023-10-14T06:01:14.410Z,2.38
2023-10-14T06:03:43.214Z,2.10
2023-10-14T06:06:11.939Z,2.53
2023-10-14T06:08:39.943Z,2.33
2023-10-14T06:11:08.014Z,3.03
2023-10-14T06:13:36.693Z,2.75
2023-10-14T06:16:11.095Z,2.97
2023-10-14T06:18:41.447Z,2.35
2023-10-14T06:21:12.368Z,2.08
2023-10-14T06:23:41.172Z,2.38
2023-10-14T06:26:10.449Z,2.47
2023-10-14T06:28:39.152Z,2.60
2023-10-14T06:31:07.231Z,2.58
2023-10-14T06:33:35.437Z,2.35
2023-10-14T06:36:08.778Z,2.50
2023-10-14T06:38:38.598Z,2.00
2023-10-14T06:41:06.703Z,2.20
2023-10-14T06:43:35.708Z,2.40
2023-10-14T06:46:06.195Z,3.00
2023-10-14T06:48:34.619Z,3.05
2023-10-14T06:51:03.935Z,3.17
2023-10-14T06:53:32.060Z,2.80
2023-10-14T06:56:01.941Z,2.88
2023-10-14T06:58:30.486Z,3.20
2023-10-14T07:00:59.692Z,2.70
2023-10-14T07:03:29.890Z,2.83
2023-10-14T07:06:01.539Z,3.10
2023-10-14T07:08:30.919Z,3.38
2023-10-14T07:11:01.496Z,2.90
2023-10-14T07:13:29.919Z,2.38
2023-10-14T07:15:57.964Z,2.78
2023-10-14T07:18:26.295Z,2.60
2023-10-14T07:20:58.973Z,3.03
2023-10-14T07:23:26.941Z,2.97
2023-10-14T07:25:56.503Z,2.67
2023-10-14T07:28:24.797Z,3.10
2023-10-14T07:30:52.867Z,3.22
2023-10-14T07:33:23.526Z,2.92
2023-10-14T07:35:53.495Z,2.95
2023-10-14T07:38:25.119Z,2.78
2023-10-14T07:40:58.122Z,2.95
2023-10-14T07:43:28.122Z,2.65
2023-10-14T07:45:56.191Z,2.92
2023-10-14T07:48:25.471Z,3.05
2023-10-14T07:50:57.456Z,2.75
2023-10-14T07:53:26.124Z,3.10
2023-10-14T07:55:57.658Z,3.17
2023-10-14T07:58:27.459Z,2.78
2023-10-14T08:00:56.391Z,2.90
2023-10-14T08:03:26.476Z,3.60
2023-10-14T08:06:00.704Z,2.75
2023-10-14T08:08:31.859Z,2.80
2023-10-14T08:11:02.188Z,2.63
2023-10-14T08:13:32.536Z,2.53
2023-10-14T08:16:01.010Z,2.70
2023-10-14T08:18:28.893Z,2.80
2023-10-14T08:20:57.889Z,2.92
2023-10-14T08:23:27.017Z,2.63
2023-10-14T08:25:56.175Z,2.65
2023-10-14T08:28:26.150Z,2.85
2023-10-14T08:30:54.150Z,3.42
2023-10-14T08:33:24.851Z,2.92
2023-10-14T08:35:53.620Z,3.30
2023-10-14T08:38:23.584Z,3.10
2023-10-14T08:40:53.714Z,3.22
2023-10-14T08:43:23.489Z,3.42
2023-10-14T08:45:54.860Z,3.55
2023-10-14T08:48:25.214Z,2.72
2023-10-14T08:50:56.218Z,4.03
2023-10-14T08:53:24.305Z,3.00
2023-10-14T08:55:53.536Z,2.85
2023-10-14T08:58:23.653Z,3.47
2023-10-14T09:00:55.472Z,3.33
2023-10-14T09:03:25.836Z,3.38
2023-10-14T09:05:54.179Z,2.80
2023-10-14T09:08:22.316Z,3.13
2023-10-14T09:10:51.474Z,3.50
2023-10-14T09:13:22.111Z,2.85
2023-10-14T09:15:52.113Z,3.50
2023-10-14T09:18:23.276Z,3.20
2023-10-14T09:20:55.710Z,3.55
2023-10-14T09:23:31.112Z,2.92
2023-10-14T09:26:00.293Z,3.00
2023-10-14T09:28:29.629Z,3.58
2023-10-14T09:30:59.216Z,3.28
2023-10-14T09:33:29.887Z,3.05
2023-10-14T09:36:00.834Z,3.53
2023-10-14T09:38:33.150Z,3.28
2023-10-14T09:41:03.861Z,3.20
2023-10-14T09:43:32.259Z,2.80
2023-10-14T09:46:01.641Z,3.03
2023-10-14T09:48:33.039Z,3.08
2023-10-14T09:51:02.998Z,4.68
2023-10-14T09:53:33.654Z,3.33
2023-10-14T09:56:07.212Z,2.95
2023-10-14T09:58:36.931Z,2.80
2023-10-14T10:01:08.133Z,3.38
2023-10-14T10:03:46.005Z,2.72
2023-10-14T10:06:21.443Z,2.63
2023-10-14T10:09:29.486Z,2.35
2023-10-14T10:11:59.451Z,2.33
2023-10-14T10:14:28.103Z,2.20
2023-10-14T10:17:02.156Z,2.55
2023-10-14T10:20:01.302Z,1.98
2023-10-14T10:22:41.230Z,2.00
2023-10-14T10:25:14.711Z,2.42
2023-10-14T10:27:43.987Z,2.30
2023-10-14T10:30:15.528Z,1.85
2023-10-14T10:32:48.195Z,2.30
2023-10-14T10:35:19.067Z,2.70
2023-10-14T10:37:49.960Z,2.30
2023-10-14T10:40:23.578Z,2.75
2023-10-14T10:42:55.621Z,3.17
2023-10-14T10:45:24.518Z,3.05
2023-10-14T10:47:57.666Z,3.30
2023-10-14T10:50:28.754Z,3.30
2023-10-14T10:53:18.880Z,3.05
2023-10-14T10:55:48.741Z,2.63
2023-10-14T10:58:17.754Z,2.78
2023-10-14T11:00:47.582Z,3.03
2023-10-14T11:03:16.893Z,2.58
2023-10-14T11:05:48.310Z,2.35
2023-10-14T11:08:17.307Z,2.53
2023-10-14T11:10:46.139Z,2.97
2023-10-14T11:13:17.553Z,2.30
2023-10-14T11:15:47.261Z,2.10
2023-10-14T11:18:35.317Z,2.42
2023-10-14T11:21:05.241Z,1.75
2023-10-14T11:23:37.175Z,1.70
2023-10-14T11:26:13.859Z,1.93
2023-10-14T11:28:46.490Z,1.88
2023-10-14T11:31:15.407Z,2.10
2023-10-14T11:33:47.063Z,1.50
2023-10-14T11:36:19.268Z,1.65
2023-10-14T11:38:49.353Z,1.58
2023-10-14T11:41:19.027Z,2.40
2023-10-14T11:43:47.176Z,2.22
2023-10-14T11:46:15.478Z,2.60
2023-10-14T11:48:47.103Z,2.53
2023-10-14T11:51:21.285Z,2.70
2023-10-14T11:53:54.160Z,2.65
2023-10-14T11:56:22.668Z,2.60
2023-10-14T11:58:51.986Z,2.60
2023-10-14T12:01:24.945Z,2.45
2023-10-14T12:03:53.540Z,2.20
2023-10-14T12:06:22.854Z,2.55
2023-10-14T12:08:53.301Z,3.00
2023-10-14T12:11:21.438Z,3.10
2023-10-14T12:13:52.628Z,2.10
2023-10-14T12:16:22.613Z,2.40
2023-10-14T12:18:55.868Z,2.50
2023-10-14T12:21:25.593Z,2.63
2023-10-14T12:23:56.323Z,2.80
2023-10-14T12:26:38.280Z,2.42
2023-10-14T12:29:11.368Z,2.90
2023-10-14T12:31:42.718Z,2.50
2023-10-14T12:34:11.300Z,2.47
2023-10-14T12:36:42.581Z,3.15
2023-10-14T12:39:20.728Z,2.95
2023-10-14T12:41:52.365Z,2.50
2023-10-14T12:44:20.968Z,3.42
2023-10-14T12:46:49.897Z,2.67
2023-10-14T12:49:21.037Z,2.92
2023-10-14T12:51:58.342Z,3.00
2023-10-14T12:54:31.003Z,2.70
2023-10-14T12:56:59.421Z,2.92
2023-10-14T12:59:27.482Z,3.13
2023-10-14T13:02:00.587Z,2.83
2023-10-14T13:04:28.855Z,3.23
2023-10-14T13:06:59.502Z,3.03
2023-10-14T13:09:31.562Z,2.70
2023-10-14T13:12:00.034Z,2.03
2023-10-14T13:14:29.333Z,2.30
2023-10-14T13:17:00.358Z,2.00
2023-10-14T13:19:34.480Z,1.90
2023-10-14T13:22:10.134Z,1.98
2023-10-14T13:24:38.738Z,2.42
2023-10-14T13:27:06.655Z,1.90
2023-10-14T13:29:36.669Z,2.65
2023-10-14T13:32:04.830Z,2.70
2023-10-14T13:34:34.154Z,2.58
2023-10-14T13:37:02.464Z,2.25
2023-10-14T13:39:36.661Z,2.38
2023-10-14T13:42:07.437Z,2.40
2023-10-14T13:44:36.014Z,2.50
2023-10-14T13:47:06.679Z,2.60
2023-10-14T13:49:35.741Z,2.53
2023-10-14T13:52:04.952Z,2.70
2023-10-14T13:54:34.968Z,2.47
2023-10-14T13:57:02.441Z,2.47
2023-10-14T13:59:30.359Z,2.53
2023-10-14T14:01:58.443Z,2.13
2023-10-14T14:04:26.611Z,2.20
2023-10-14T14:06:55.424Z,2.58
2023-10-14T14:09:26.014Z,2.35
2023-10-14T14:11:58.146Z,2.25
2023-10-14T14:14:27.108Z,9.63
2023-10-14T14:16:55.729Z,4.38
2023-10-14T14:19:24.414Z,5.10
2023-10-14T14:21:53.233Z,4.00
2023-10-14T14:24:23.731Z,3.83
2023-10-14T14:26:52.284Z,3.60
2023-10-14T14:29:21.756Z,3.95
2023-10-14T14:31:50.968Z,5.82
2023-10-14T14:34:19.276Z,3.65
2023-10-14T14:36:48.153Z,4.97
2023-10-14T14:39:21.479Z,4.88
2023-10-14T14:41:52.217Z,3.67
2023-10-14T14:44:21.626Z,3.40
2023-10-14T14:46:52.134Z,4.35
2023-10-14T14:49:20.279Z,11.52
2023-10-14T14:51:48.198Z,12.00
2023-10-14T14:54:16.549Z,6.97
2023-10-14T14:56:45.733Z,5.25
2023-10-14T14:59:14.965Z,3.95
2023-10-14T15:01:44.856Z,3.38
2023-10-14T15:04:14.089Z,4.10
2023-10-14T15:06:42.934Z,4.05
2023-10-14T15:09:16.344Z,4.93
2023-10-14T15:11:46.088Z,3.83
2023-10-14T15:14:16.744Z,3.83
2023-10-14T15:16:47.235Z,3.38
2023-10-14T15:19:21.692Z,4.15
2023-10-14T15:21:50.573Z,3.80
2023-10-14T15:24:19.398Z,3.60
2023-10-14T15:26:49.210Z,3.42
2023-10-14T15:29:17.617Z,3.38
2023-10-14T15:31:47.615Z,3.47
2023-10-14T15:34:16.250Z,3.35
2023-10-14T15:36:45.462Z,3.70
2023-10-14T15:39:29.417Z,3.33
2023-10-14T15:41:57.408Z,3.17
2023-10-14T15:44:25.934Z,3.38
2023-10-14T15:46:55.472Z,3.03
2023-10-14T15:49:23.637Z,3.60
2023-10-14T15:51:52.835Z,3.53
2023-10-14T15:54:21.348Z,3.72
2023-10-14T15:56:49.830Z,3.20
2023-10-14T15:59:18.292Z,3.30
2023-10-14T16:01:46.219Z,3.65
2023-10-14T16:04:17.295Z,3.97
2023-10-14T16:06:47.092Z,4.30
2023-10-14T16:09:15.071Z,4.15
2023-10-14T16:11:42.943Z,3.53
2023-10-14T16:14:10.826Z,3.90
2023-10-14T16:16:40.481Z,3.72
2023-10-14T16:19:10.004Z,3.42
2023-10-14T16:21:39.454Z,3.10
2023-10-14T16:24:08.251Z,3.35
2023-10-14T16:26:36.081Z,3.15
2023-10-14T16:29:05.130Z,3.13
2023-10-14T16:31:36.512Z,2.92
2023-10-14T16:34:04.752Z,3.47
2023-10-14T16:36:32.759Z,3.63
2023-10-14T16:39:02.157Z,3.08
2023-10-14T16:41:32.320Z,3.72
2023-10-14T16:44:01.716Z,3.78
2023-10-14T16:46:29.807Z,3.53
2023-10-14T16:48:58.082Z,3.60
2023-10-14T16:51:26.001Z,3.65
2023-10-14T16:53:53.936Z,3.63
2023-10-14T16:56:25.677Z,2.88
2023-10-14T16:58:53.750Z,3.65
2023-10-14T17:01:21.759Z,5.40
2023-10-14T17:03:49.938Z,5.32
2023-10-14T17:06:18.501Z,5.18
2023-10-14T17:08:47.580Z,4.95
2023-10-14T17:11:15.511Z,4.20
2023-10-14T17:13:45.193Z,3.65
2023-10-14T17:16:14.452Z,3.42
2023-10-14T17:18:44.780Z,3.42
2023-10-14T17:21:14.362Z,2.92
2023-10-14T17:23:42.463Z,3.22
2023-10-14T17:26:12.433Z,3.50
2023-10-14T17:28:40.535Z,3.15
2023-10-14T17:31:10.893Z,3.17
2023-10-14T17:33:39.048Z,3.10
2023-10-14T17:36:13.088Z,3.40
2023-10-14T17:38:41.880Z,3.45
2023-10-14T17:41:17.328Z,3.33
2023-10-14T17:43:45.682Z,2.95
2023-10-14T17:46:18.918Z,3.53
2023-10-14T17:48:47.470Z,3.67
2023-10-14T17:51:15.441Z,3.95
2023-10-14T17:53:45.389Z,3.67
2023-10-14T17:56:14.889Z,3.50
2023-10-14T17:58:42.797Z,26.70
2023-10-14T18:01:11.860Z,12.10
2023-10-14T18:03:43.703Z,6.55
2023-10-14T18:06:12.391Z,5.78
2023-10-14T18:08:40.628Z,4.63
2023-10-14T18:11:09.409Z,4.70
2023-10-14T18:13:37.846Z,3.90
2023-10-14T18:16:09.421Z,3.65
2023-10-14T18:18:38.108Z,3.80
2023-10-14T18:21:11.106Z,3.53
2023-10-14T18:23:39.136Z,3.35
2023-10-14T18:26:09.854Z,4.50
2023-10-14T18:28:37.996Z,4.35
2023-10-14T18:31:07.705Z,3.50
2023-10-14T18:33:36.880Z,3.67
2023-10-14T18:36:08.864Z,4.45
2023-10-14T18:38:39.146Z,4.38
2023-10-14T18:41:14.037Z,4.97
2023-10-14T18:43:43.776Z,4.38
2023-10-14T18:46:16.602Z,5.05
2023-10-14T18:48:47.840Z,4.57
2023-10-14T18:51:17.348Z,6.13
2023-10-14T18:53:46.544Z,5.93
2023-10-14T18:56:21.245Z,5.85
2023-10-14T18:58:57.000Z,5.07
2023-10-14T19:01:27.756Z,3.67
2023-10-14T19:04:00.762Z,3.20
2023-10-14T19:06:29.588Z,3.60
2023-10-14T19:09:01.559Z,3.60
2023-10-14T19:11:31.275Z,3.45
2023-10-14T19:14:01.489Z,5.07
2023-10-14T19:16:30.551Z,4.22
2023-10-14T19:18:58.506Z,3.75
2023-10-14T19:21:26.396Z,3.85
2023-10-14T19:23:55.469Z,3.70
2023-10-14T19:26:24.837Z,3.42
2023-10-14T19:28:53.888Z,20.40
2023-10-14T19:31:21.854Z,16.17
2023-10-14T19:33:49.827Z,9.27
2023-10-14T19:36:17.730Z,6.95
2023-10-14T19:38:45.598Z,6.05
2023-10-14T19:41:14.205Z,5.40
2023-10-14T19:43:44.189Z,5.60
2023-10-14T19:46:13.640Z,5.35
2023-10-14T19:48:44.633Z,4.97
2023-10-14T19:51:14.729Z,5.18
2023-10-14T19:53:43.897Z,5.53
2023-10-14T19:56:13.048Z,4.78
2023-10-14T19:58:43.999Z,4.25
2023-10-14T20:01:16.728Z,4.05
2023-10-14T20:03:45.658Z,4.35
2023-10-14T20:06:20.300Z,3.97
2023-10-14T20:08:49.812Z,3.70
2023-10-14T20:11:18.223Z,3.13
2023-10-14T20:13:47.440Z,3.78
2023-10-14T20:16:18.589Z,3.17
2023-10-14T20:18:47.536Z,3.35
2023-10-14T20:21:16.468Z,3.67
2023-10-14T20:23:45.297Z,3.40
2023-10-14T20:26:13.992Z,8.38
2023-10-14T20:28:45.011Z,6.75
2023-10-14T20:31:13.815Z,5.10
2023-10-14T20:33:43.309Z,4.00
2023-10-14T20:36:12.314Z,4.55
2023-10-14T20:38:40.176Z,4.70
2023-10-14T20:41:09.170Z,5.43
2023-10-14T20:43:37.470Z,4.88
2023-10-14T20:46:10.292Z,4.65
2023-10-14T20:48:39.901Z,4.00
2023-10-14T20:51:11.936Z,4.82
2023-10-14T20:53:39.805Z,4.70
2023-10-14T20:56:11.140Z,3.95
2023-10-14T20:58:39.402Z,4.15
2023-10-14T21:01:13.852Z,3.78
2023-10-14T21:03:41.943Z,4.03
2023-10-14T21:06:11.255Z,4.03
2023-10-14T21:08:39.802Z,4.50
2023-10-14T21:11:11.562Z,3.88
2023-10-14T21:13:39.764Z,4.30
2023-10-14T21:16:07.831Z,4.75
2023-10-14T21:18:36.037Z,4.28
2023-10-14T21:21:11.193Z,3.67
2023-10-14T21:23:40.764Z,3.33
2023-10-14T21:26:10.881Z,3.25
2023-10-14T21:28:38.761Z,4.07
2023-10-14T21:31:11.585Z,4.20
2023-10-14T21:33:39.874Z,3.50
2023-10-14T21:36:15.419Z,2.92
2023-10-14T21:38:45.627Z,3.47
2023-10-14T21:41:14.018Z,3.33
2023-10-14T21:43:42.329Z,2.95
2023-10-14T21:46:11.093Z,2.67
2023-10-14T21:48:39.026Z,3.20
2023-10-14T21:51:08.824Z,2.97
2023-10-14T21:53:37.169Z,3.33
2023-10-14T21:56:06.809Z,3.05
2023-10-14T21:58:34.787Z,2.67
2023-10-14T22:01:24.930Z,2.65
2023-10-14T22:03:54.120Z,2.58
2023-10-14T22:06:23.189Z,3.00
2023-10-14T22:08:51.446Z,3.08
2023-10-14T22:11:20.911Z,3.15
2023-10-14T22:13:50.265Z,3.05
2023-10-14T22:16:20.191Z,4.45
2023-10-14T22:18:52.401Z,4.25
2023-10-14T22:21:20.685Z,3.45
2023-10-14T22:23:50.058Z,2.92
2023-10-14T22:26:18.207Z,2.50
2023-10-14T22:28:47.724Z,2.35
2023-10-14T22:31:16.928Z,2.63
2023-10-14T22:33:45.993Z,2.08
2023-10-14T22:36:14.035Z,2.58
2023-10-14T22:38:44.611Z,2.47
2023-10-14T22:41:12.771Z,2.42
2023-10-14T22:43:42.149Z,2.40
2023-10-14T22:46:13.787Z,2.25
2023-10-14T22:48:42.421Z,2.50
2023-10-14T22:51:11.665Z,4.30
2023-10-14T22:53:40.062Z,3.90
2023-10-14T22:56:08.224Z,3.03
2023-10-14T22:58:38.621Z,3.40
2023-10-14T23:01:08.085Z,14.18
2023-10-14T23:03:37.315Z,8.40
2023-10-14T23:06:07.228Z,4.63
2023-10-14T23:08:35.495Z,2.80
2023-10-14T23:11:03.485Z,2.65
2023-10-14T23:13:31.580Z,2.35
2023-10-14T23:15:59.537Z,2.45
2023-10-14T23:18:27.687Z,1.58
2023-10-14T23:20:58.529Z,1.60
2023-10-14T23:23:26.585Z,1.75
2023-10-14T23:25:55.475Z,1.30
2023-10-14T23:28:24.578Z,1.13
2023-10-14T23:30:52.726Z,1.45
2023-10-14T23:33:20.649Z,2.38
2023-10-14T23:35:48.795Z,2.70
2023-10-14T23:38:20.713Z,2.40
2023-10-14T23:40:48.914Z,2.00
2023-10-14T23:43:18.071Z,2.38
2023-10-14T23:45:46.200Z,1.92
2023-10-14T23:48:14.004Z,1.70
2023-10-14T23:50:43.348Z,1.80
2023-10-14T23:53:11.412Z,1.52
2023-10-14T23:55:44.629Z,1.17
2023-10-14T23:58:12.926Z,1.33
